createdAt,value
2023-12-14T00:00:11.691Z,6.10
2023-12-14T00:02:44.634Z,6.18
2023-12-14T00:05:14.709Z,6.03
2023-12-14T00:07:44.549Z,6.03
2023-12-14T00:10:14.552Z,5.91
2023-12-14T00:12:44.385Z,5.78
2023-12-14T00:15:14.230Z,5.98
2023-12-14T00:17:46.717Z,6.00
2023-12-14T00:20:16.806Z,5.97
2023-12-14T00:22:46.617Z,6.03
2023-12-14T00:25:16.570Z,6.10
2023-12-14T00:27:46.386Z,6.16
2023-12-14T00:30:17.033Z,6.04
2023-12-14T00:32:49.518Z,6.04
2023-12-14T00:35:19.358Z,5.97
2023-12-14T00:37:49.170Z,5.63
2023-12-14T00:40:19.144Z,5.84
2023-12-14T00:42:49.019Z,5.74
2023-12-14T00:45:18.853Z,5.67
2023-12-14T00:47:51.256Z,5.41
2023-12-14T00:50:21.212Z,5.40
2023-12-14T00:52:51.103Z,5.61
2023-12-14T00:55:20.937Z,5.66
2023-12-14T00:57:50.744Z,5.58
2023-12-14T01:00:21.504Z,5.75
2023-12-14T01:02:53.919Z,5.84
2023-12-14T01:05:23.868Z,5.76
2023-12-14T01:07:53.801Z,5.90
2023-12-14T01:10:23.715Z,5.73
2023-12-14T01:12:53.634Z,5.96
2023-12-14T01:15:23.464Z,5.90
2023-12-14T01:17:55.900Z,5.93
2023-12-14T01:20:25.956Z,5.89
2023-12-14T01:22:55.840Z,5.76
2023-12-14T01:25:25.666Z,5.88
2023-12-14T01:27:55.456Z,5.80
2023-12-14T01:30:25.378Z,5.77
2023-12-14T01:32:57.845Z,5.73
2023-12-14T01:35:27.667Z,5.80
2023-12-14T01:37:57.525Z,5.84
2023-12-14T01:40:27.338Z,5.85
2023-12-14T01:42:57.159Z,5.83
2023-12-14T01:45:26.958Z,5.32
2023-12-14T01:47:59.442Z,6.01
2023-12-14T01:50:29.364Z,6.04
2023-12-14T01:52:59.324Z,5.80
2023-12-14T01:55:29.638Z,5.93
2023-12-14T01:57:59.429Z,5.68
2023-12-14T02:00:38.595Z,5.68
2023-12-14T02:03:10.996Z,5.08
2023-12-14T02:05:41.098Z,5.56
2023-12-14T02:08:11.147Z,5.50
2023-12-14T02:10:41.015Z,5.58
2023-12-14T02:13:10.901Z,5.25
2023-12-14T02:15:40.807Z,5.59
2023-12-14T02:18:13.393Z,5.68
2023-12-14T02:20:43.237Z,5.39
2023-12-14T02:23:15.691Z,5.71
2023-12-14T02:25:45.602Z,5.60
2023-12-14T02:28:15.538Z,5.75
2023-12-14T02:30:45.517Z,5.61
2023-12-14T02:33:15.531Z,5.78
2023-12-14T02:35:45.333Z,5.58
2023-12-14T02:38:17.831Z,5.63
2023-12-14T02:40:47.720Z,5.74
2023-12-14T02:43:17.537Z,5.63
2023-12-14T02:45:47.400Z,5.31
2023-12-14T02:48:17.291Z,5.45
2023-12-14T02:50:47.225Z,5.36
2023-12-14T02:53:22.443Z,5.57
2023-12-14T02:55:52.532Z,5.63
2023-12-14T02:58:22.777Z,5.67
2023-12-14T03:00:52.831Z,5.53
2023-12-14T03:03:22.633Z,5.74
2023-12-14T03:05:52.500Z,5.79
2023-12-14T03:08:24.970Z,5.77
2023-12-14T03:10:54.802Z,5.77
2023-12-14T03:13:24.626Z,5.72
2023-12-14T03:15:54.408Z,5.78
2023-12-14T03:18:24.346Z,5.73
2023-12-14T03:20:54.209Z,5.76
2023-12-14T03:23:26.707Z,5.61
2023-12-14T03:25:56.532Z,5.48
2023-12-14T03:28:26.368Z,5.13
2023-12-14T03:30:56.317Z,5.70
2023-12-14T03:33:26.251Z,5.38
2023-12-14T03:35:56.063Z,5.62
2023-12-14T03:38:28.436Z,5.63
2023-12-14T03:40:58.307Z,5.57
2023-12-14T03:43:28.157Z,5.52
2023-12-14T03:45:57.961Z,5.54
2023-12-14T03:48:27.841Z,5.24
2023-12-14T03:50:57.729Z,5.43
2023-12-14T03:53:30.091Z,5.50
2023-12-14T03:56:01.622Z,5.45
2023-12-14T03:58:31.567Z,5.29
2023-12-14T04:01:01.428Z,5.60
2023-12-14T04:03:31.402Z,5.59
2023-12-14T04:06:01.295Z,5.46
2023-12-14T04:08:33.745Z,5.78
2023-12-14T04:11:03.567Z,5.62
2023-12-14T04:13:33.418Z,5.69
2023-12-14T04:16:03.846Z,5.70
2023-12-14T04:18:33.798Z,5.63
2023-12-14T04:21:03.742Z,5.55
2023-12-14T04:23:36.210Z,5.65
2023-12-14T04:26:06.316Z,5.66
2023-12-14T04:28:36.181Z,5.61
2023-12-14T04:31:06.180Z,5.35
2023-12-14T04:33:36.060Z,5.61
2023-12-14T04:36:06.031Z,5.77
2023-12-14T04:38:38.449Z,5.78
2023-12-14T04:41:08.548Z,5.77
2023-12-14T04:43:38.428Z,5.93
2023-12-14T04:46:09.339Z,5.90
2023-12-14T04:48:40.312Z,5.43
2023-12-14T04:51:15.477Z,5.86
2023-12-14T04:53:47.851Z,5.97
2023-12-14T04:56:17.793Z,5.97
2023-12-14T04:58:47.655Z,6.10
2023-12-14T05:01:17.822Z,5.80
2023-12-14T05:03:47.668Z,5.76
2023-12-14T05:06:17.632Z,5.87
2023-12-14T05:08:50.014Z,5.94
2023-12-14T05:11:19.895Z,5.66
2023-12-14T05:13:49.720Z,5.89
2023-12-14T05:16:19.591Z,5.86
2023-12-14T05:18:50.190Z,5.78
2023-12-14T05:21:21.362Z,5.72
2023-12-14T05:23:54.757Z,5.41
2023-12-14T05:26:24.569Z,5.63
2023-12-14T05:28:55.254Z,5.65
2023-12-14T05:31:25.191Z,5.68
2023-12-14T05:33:55.212Z,5.60
2023-12-14T05:36:25.057Z,5.68
2023-12-14T05:38:57.435Z,5.59
2023-12-14T05:41:27.217Z,5.66
2023-12-14T05:43:57.111Z,5.80
2023-12-14T05:46:27.495Z,5.83
2023-12-14T05:48:57.312Z,5.73
2023-12-14T05:51:31.443Z,5.70
2023-12-14T05:54:03.939Z,5.75
2023-12-14T05:56:34.328Z,5.70
2023-12-14T05:59:04.954Z,5.65
2023-12-14T06:01:34.886Z,5.67
2023-12-14T06:04:04.854Z,5.63
2023-12-14T06:06:34.717Z,5.53
2023-12-14T06:09:08.571Z,5.72
2023-12-14T06:11:38.451Z,5.71
2023-12-14T06:14:08.334Z,5.44
2023-12-14T06:16:38.204Z,5.53
2023-12-14T06:19:08.266Z,5.38
2023-12-14T06:21:38.146Z,5.26
2023-12-14T06:24:11.116Z,5.54
2023-12-14T06:26:44.963Z,5.47
2023-12-14T06:29:15.950Z,5.42
2023-12-14T06:31:45.899Z,5.52
2023-12-14T06:34:15.809Z,5.51
2023-12-14T06:36:46.821Z,5.47
2023-12-14T06:39:20.791Z,5.58
2023-12-14T06:41:50.714Z,5.57
2023-12-14T06:44:20.540Z,5.45
2023-12-14T06:46:50.453Z,5.53
2023-12-14T06:49:20.255Z,5.07
2023-12-14T06:51:50.070Z,5.24
2023-12-14T06:54:22.595Z,5.67
2023-12-14T06:56:52.379Z,5.68
2023-12-14T06:59:22.222Z,5.59
2023-12-14T07:01:53.300Z,5.68
2023-12-14T07:04:23.371Z,5.71
2023-12-14T07:06:57.710Z,5.63
2023-12-14T07:09:30.461Z,5.27
2023-12-14T07:12:02.610Z,5.82
2023-12-14T07:14:32.461Z,5.83
2023-12-14T07:17:02.271Z,5.82
2023-12-14T07:19:33.305Z,5.46
2023-12-14T07:22:03.323Z,5.89
2023-12-14T07:24:40.957Z,5.90
2023-12-14T07:27:18.894Z,5.86
2023-12-14T07:29:48.662Z,5.82
2023-12-14T07:32:19.501Z,5.74
2023-12-14T07:34:49.361Z,5.88
2023-12-14T07:37:19.396Z,5.81
2023-12-14T07:39:51.847Z,5.92
2023-12-14T07:42:22.469Z,5.78
2023-12-14T07:44:52.247Z,5.73
2023-12-14T07:47:22.385Z,5.88
2023-12-14T07:49:52.227Z,5.86
2023-12-14T07:52:22.031Z,5.90
2023-12-14T07:54:54.485Z,5.93
2023-12-14T07:57:25.032Z,5.79
2023-12-14T07:59:54.836Z,5.73
2023-12-14T08:02:24.699Z,5.79
2023-12-14T08:04:54.576Z,5.65
2023-12-14T08:07:24.391Z,5.75
2023-12-14T08:09:56.736Z,5.76
2023-12-14T08:12:27.069Z,5.61
2023-12-14T08:14:56.892Z,5.68
2023-12-14T08:17:27.895Z,5.72
2023-12-14T08:19:57.811Z,5.32
2023-12-14T08:22:27.619Z,5.62
2023-12-14T08:25:00.000Z,5.81
2023-12-14T08:27:29.978Z,5.73
2023-12-14T08:29:59.799Z,5.57
2023-12-14T08:32:29.607Z,5.01
2023-12-14T08:34:59.451Z,5.69
2023-12-14T08:37:29.219Z,5.73
2023-12-14T08:40:01.749Z,5.43
2023-12-14T08:42:32.237Z,5.42
2023-12-14T08:45:02.125Z,5.48
2023-12-14T08:47:31.937Z,5.62
2023-12-14T08:50:01.808Z,5.68
2023-12-14T08:52:31.610Z,5.37
2023-12-14T08:55:04.022Z,5.69
2023-12-14T08:57:33.879Z,5.58
2023-12-14T09:00:05.255Z,5.57
2023-12-14T09:02:35.386Z,5.40
2023-12-14T09:05:05.995Z,5.57
2023-12-14T09:07:35.892Z,5.51
2023-12-14T09:10:09.603Z,5.57
2023-12-14T09:12:39.685Z,5.21
2023-12-14T09:15:10.703Z,5.42
2023-12-14T09:17:40.833Z,5.73
2023-12-14T09:20:13.223Z,5.75
2023-12-14T09:22:43.192Z,5.78
2023-12-14T09:25:16.723Z,5.84
2023-12-14T09:27:46.780Z,5.86
2023-12-14T09:30:18.748Z,5.29
2023-12-14T09:32:48.887Z,5.89
2023-12-14T09:35:19.432Z,5.73
2023-12-14T09:37:49.289Z,5.80
2023-12-14T09:40:23.429Z,5.93
2023-12-14T09:42:53.381Z,5.74
2023-12-14T09:45:27.857Z,5.38
2023-12-14T09:47:58.186Z,5.93
2023-12-14T09:50:28.288Z,6.06
2023-12-14T09:52:58.128Z,6.09
2023-12-14T09:55:32.506Z,6.21
2023-12-14T09:58:03.716Z,6.03
2023-12-14T10:00:37.825Z,6.31
2023-12-14T10:03:27.548Z,6.28
2023-12-14T10:05:58.654Z,6.32
2023-12-14T10:08:30.046Z,6.24
2023-12-14T10:11:02.712Z,6.41
2023-12-14T10:13:41.390Z,5.92
2023-12-14T10:16:11.538Z,6.24
2023-12-14T10:18:41.567Z,6.20
2023-12-14T10:21:11.562Z,6.02
2023-12-14T10:23:41.348Z,6.26
2023-12-14T10:26:13.838Z,6.28
2023-12-14T10:28:44.052Z,6.06
2023-12-14T10:31:14.397Z,6.34
2023-12-14T10:33:44.479Z,6.39
2023-12-14T10:36:14.834Z,6.47
2023-12-14T10:38:48.070Z,6.40
2023-12-14T10:41:21.664Z,6.65
2023-12-14T10:44:03.267Z,6.59
2023-12-14T10:46:42.146Z,6.55
2023-12-14T10:49:13.746Z,6.42
2023-12-14T10:51:45.827Z,6.45
2023-12-14T10:54:19.624Z,6.50
2023-12-14T10:56:52.071Z,6.52
2023-12-14T10:59:21.852Z,6.56
2023-12-14T11:01:56.009Z,5.80
2023-12-14T11:04:26.086Z,6.75
2023-12-14T11:06:57.406Z,6.79
2023-12-14T11:09:28.433Z,6.69
2023-12-14T11:12:05.392Z,6.74
2023-12-14T11:14:35.219Z,6.59
2023-12-14T11:17:10.403Z,6.60
2023-12-14T11:19:40.621Z,6.64
2023-12-14T11:22:26.840Z,6.74
2023-12-14T11:24:57.798Z,6.79
2023-12-14T11:27:35.585Z,6.85
2023-12-14T11:30:06.735Z,6.76
2023-12-14T11:32:36.818Z,6.54
2023-12-14T11:35:09.626Z,6.84
2023-12-14T11:37:40.063Z,6.95
2023-12-14T11:40:12.577Z,6.93
2023-12-14T11:42:47.483Z,7.05
2023-12-14T11:45:18.712Z,7.03
2023-12-14T11:47:48.681Z,7.02
2023-12-14T11:50:19.611Z,7.00
2023-12-14T11:52:49.677Z,6.58
2023-12-14T11:55:19.696Z,7.06
2023-12-14T11:57:53.985Z,7.09
2023-12-14T12:00:28.482Z,6.90
2023-12-14T12:03:11.413Z,7.14
2023-12-14T12:05:42.630Z,7.21
2023-12-14T12:08:13.614Z,7.10
2023-12-14T12:10:46.049Z,7.22
2023-12-14T12:13:20.154Z,7.01
2023-12-14T12:15:51.015Z,7.07
2023-12-14T12:18:21.255Z,6.82
2023-12-14T12:20:51.070Z,7.08
2023-12-14T12:23:20.952Z,7.17
2023-12-14T12:25:56.077Z,6.86
2023-12-14T12:28:28.487Z,7.23
2023-12-14T12:30:58.826Z,7.16
2023-12-14T12:33:28.729Z,6.92
2023-12-14T12:35:58.579Z,7.10
2023-12-14T12:38:28.397Z,7.16
2023-12-14T12:41:01.152Z,7.04
2023-12-14T12:43:33.573Z,7.16
2023-12-14T12:46:03.694Z,7.19
2023-12-14T12:48:33.922Z,6.72
2023-12-14T12:51:03.845Z,7.28
2023-12-14T12:53:34.550Z,7.09
2023-12-14T12:56:04.368Z,7.25
2023-12-14T12:58:36.754Z,7.24
2023-12-14T13:01:06.618Z,7.11
2023-12-14T13:03:36.418Z,6.97
2023-12-14T13:06:06.560Z,7.10
2023-12-14T13:08:36.443Z,7.21
2023-12-14T13:11:06.512Z,7.18
2023-12-14T13:13:38.935Z,6.62
2023-12-14T13:16:09.147Z,7.01
2023-12-14T13:18:39.031Z,6.93
2023-12-14T13:21:09.170Z,7.24
2023-12-14T13:23:39.010Z,7.25
2023-12-14T13:26:09.385Z,7.00
2023-12-14T13:28:41.901Z,7.25
2023-12-14T13:31:11.843Z,7.40
2023-12-14T13:33:41.750Z,7.42
2023-12-14T13:36:12.634Z,7.50
2023-12-14T13:38:42.631Z,7.45
2023-12-14T13:41:13.062Z,7.30
2023-12-14T13:43:47.572Z,6.14
2023-12-14T13:46:20.296Z,7.25
2023-12-14T13:48:54.337Z,7.06
2023-12-14T13:51:24.228Z,6.94
2023-12-14T13:53:54.017Z,7.18
2023-12-14T13:56:23.917Z,7.08
2023-12-14T13:58:56.533Z,7.22
2023-12-14T14:01:26.877Z,7.11
2023-12-14T14:03:56.917Z,7.12
2023-12-14T14:06:27.059Z,7.24
2023-12-14T14:08:57.009Z,7.25
2023-12-14T14:11:26.871Z,6.83
2023-12-14T14:13:59.666Z,7.03
2023-12-14T14:16:29.485Z,7.20
2023-12-14T14:19:00.072Z,7.25
2023-12-14T14:21:30.266Z,7.30
2023-12-14T14:24:00.084Z,7.17
2023-12-14T14:26:29.976Z,7.08
2023-12-14T14:29:03.415Z,7.30
2023-12-14T14:31:34.229Z,6.81
2023-12-14T14:34:04.514Z,7.22
2023-12-14T14:36:34.367Z,6.93
2023-12-14T14:39:06.017Z,7.11
2023-12-14T14:41:35.902Z,7.10
2023-12-14T14:44:08.544Z,7.08
2023-12-14T14:46:38.393Z,6.92
2023-12-14T14:49:09.249Z,6.94
2023-12-14T14:51:39.288Z,6.78
2023-12-14T14:54:09.205Z,7.08
2023-12-14T14:56:39.010Z,6.96
2023-12-14T14:59:12.454Z,6.98
2023-12-14T15:01:42.328Z,6.69
2023-12-14T15:04:12.291Z,6.61
2023-12-14T15:06:42.119Z,6.56
2023-12-14T15:09:12.468Z,6.92
2023-12-14T15:11:43.387Z,6.57
2023-12-14T15:14:15.837Z,6.96
2023-12-14T15:16:45.772Z,6.99
2023-12-14T15:19:15.690Z,7.09
2023-12-14T15:21:45.489Z,6.93
2023-12-14T15:24:15.420Z,6.75
2023-12-14T15:26:45.359Z,7.06
2023-12-14T15:29:17.878Z,6.92
2023-12-14T15:31:47.706Z,7.01
2023-12-14T15:34:19.788Z,6.86
2023-12-14T15:36:49.713Z,6.78
2023-12-14T15:39:19.568Z,6.57
2023-12-14T15:41:49.426Z,6.74
2023-12-14T15:44:22.354Z,6.24
2023-12-14T15:46:52.230Z,6.58
2023-12-14T15:49:22.118Z,6.69
2023-12-14T15:51:51.929Z,6.67
2023-12-14T15:54:21.745Z,6.89
2023-12-14T15:56:51.540Z,7.73
2023-12-14T15:59:23.985Z,7.43
2023-12-14T16:01:53.869Z,6.98
2023-12-14T16:04:23.806Z,6.93
2023-12-14T16:06:53.644Z,6.66
2023-12-14T16:09:23.488Z,6.71
2023-12-14T16:11:53.342Z,6.79
2023-12-14T16:14:25.792Z,6.75
2023-12-14T16:16:55.700Z,6.68
2023-12-14T16:19:25.514Z,6.67
2023-12-14T16:21:55.326Z,6.58
2023-12-14T16:24:26.198Z,6.60
2023-12-14T16:26:59.119Z,6.66
2023-12-14T16:29:33.937Z,6.48
2023-12-14T16:32:03.777Z,6.13
2023-12-14T16:34:34.164Z,6.21
2023-12-14T16:37:04.755Z,6.13
2023-12-14T16:39:34.584Z,6.41
2023-12-14T16:42:04.952Z,6.46
2023-12-14T16:44:38.679Z,6.61
2023-12-14T16:47:10.845Z,6.55
2023-12-14T16:49:41.686Z,6.57
2023-12-14T16:52:11.863Z,6.53
2023-12-14T16:54:43.565Z,6.50
2023-12-14T16:57:13.360Z,6.64
2023-12-14T16:59:45.863Z,6.73
2023-12-14T17:02:15.803Z,6.95
2023-12-14T17:04:45.655Z,6.74
2023-12-14T17:07:15.745Z,7.51
2023-12-14T17:09:45.585Z,7.32
2023-12-14T17:12:15.373Z,7.08
2023-12-14T17:14:47.782Z,6.29
2023-12-14T17:17:17.597Z,6.87
2023-12-14T17:19:47.446Z,6.82
2023-12-14T17:22:17.231Z,6.78
2023-12-14T17:24:47.009Z,6.69
2023-12-14T17:27:16.894Z,6.60
2023-12-14T17:29:49.252Z,6.38
2023-12-14T17:32:19.069Z,6.45
2023-12-14T17:34:48.961Z,6.55
2023-12-14T17:37:18.864Z,5.92
2023-12-14T17:39:48.764Z,6.21
2023-12-14T17:42:20.103Z,6.40
2023-12-14T17:44:53.038Z,6.24
2023-12-14T17:47:22.891Z,6.32
2023-12-14T17:49:52.754Z,6.47
2023-12-14T17:52:22.753Z,6.35
2023-12-14T17:54:53.574Z,6.59
2023-12-14T17:57:23.357Z,6.58
2023-12-14T17:59:56.018Z,6.42
2023-12-14T18:02:25.968Z,6.33
2023-12-14T18:04:55.855Z,6.57
2023-12-14T18:07:25.647Z,6.53
2023-12-14T18:09:55.435Z,6.54
2023-12-14T18:12:25.220Z,6.43
2023-12-14T18:14:57.613Z,6.60
2023-12-14T18:17:27.427Z,6.50
2023-12-14T18:19:57.872Z,6.46
2023-12-14T18:22:27.711Z,6.48
2023-12-14T18:24:57.613Z,5.91
2023-12-14T18:27:27.726Z,6.45
2023-12-14T18:30:00.431Z,6.36
2023-12-14T18:32:32.188Z,6.13
2023-12-14T18:35:02.071Z,6.36
2023-12-14T18:37:31.980Z,6.39
2023-12-14T18:40:01.749Z,6.39
2023-12-14T18:42:31.548Z,6.39
2023-12-14T18:45:04.526Z,6.44
2023-12-14T18:47:34.890Z,5.91
2023-12-14T18:50:06.545Z,6.47
2023-12-14T18:52:36.404Z,6.53
2023-12-14T18:55:07.037Z,6.42
2023-12-14T18:57:37.168Z,6.52
2023-12-14T19:00:11.403Z,6.58
2023-12-14T19:02:41.592Z,6.24
2023-12-14T19:05:12.331Z,6.46
2023-12-14T19:07:42.210Z,6.40
2023-12-14T19:10:14.741Z,6.59
2023-12-14T19:12:44.537Z,6.56
2023-12-14T19:15:17.192Z,6.71
2023-12-14T19:17:47.213Z,6.73
2023-12-14T19:20:17.726Z,6.68
2023-12-14T19:22:47.635Z,6.26
2023-12-14T19:25:17.559Z,6.36
2023-12-14T19:27:53.597Z,6.57
2023-12-14T19:30:26.218Z,6.80
2023-12-14T19:32:56.094Z,6.75
2023-12-14T19:35:26.144Z,6.90
2023-12-14T19:37:56.152Z,6.97
2023-12-14T19:40:26.540Z,6.61
2023-12-14T19:43:09.906Z,7.17
2023-12-14T19:45:42.928Z,6.55
2023-12-14T19:48:12.943Z,6.85
2023-12-14T19:50:45.002Z,7.28
2023-12-14T19:53:14.944Z,6.96
2023-12-14T19:55:45.113Z,7.27
2023-12-14T19:58:15.029Z,7.16
2023-12-14T20:00:47.582Z,6.87
2023-12-14T20:03:18.476Z,6.81
2023-12-14T20:05:48.655Z,7.37
2023-12-14T20:08:20.729Z,7.27
2023-12-14T20:10:50.797Z,7.17
2023-12-14T20:13:21.889Z,6.97
2023-12-14T20:15:54.462Z,6.92
2023-12-14T20:18:24.423Z,7.22
2023-12-14T20:20:54.380Z,7.32
2023-12-14T20:23:24.611Z,7.10
2023-12-14T20:25:55.315Z,6.97
2023-12-14T20:28:25.264Z,7.25
2023-12-14T20:30:58.062Z,7.35
2023-12-14T20:33:28.093Z,6.79
2023-12-14T20:35:58.036Z,5.80
2023-12-14T20:38:27.931Z,6.51
2023-12-14T20:40:57.869Z,6.71
2023-12-14T20:43:27.826Z,6.88
2023-12-14T20:46:00.860Z,6.03
2023-12-14T20:48:31.257Z,6.31
2023-12-14T20:51:01.188Z,6.32
2023-12-14T20:53:32.107Z,7.03
2023-12-14T20:56:02.109Z,6.79
2023-12-14T20:58:32.090Z,6.82
2023-12-14T21:01:04.623Z,6.97
2023-12-14T21:03:36.636Z,6.68
2023-12-14T21:06:06.890Z,6.30
2023-12-14T21:08:36.935Z,6.24
2023-12-14T21:11:07.136Z,6.03
2023-12-14T21:13:37.575Z,6.82
2023-12-14T21:16:11.100Z,6.90
2023-12-14T21:18:41.257Z,6.08
2023-12-14T21:21:13.110Z,6.32
2023-12-14T21:23:43.836Z,6.86
2023-12-14T21:26:17.532Z,6.75
2023-12-14T21:28:45.000Z,6.08
2023-12-14T21:31:17.490Z,6.33
2023-12-14T21:33:47.709Z,6.51
2023-12-14T21:36:17.673Z,6.86
2023-12-14T21:38:47.681Z,6.15
2023-12-14T21:41:34.366Z,4.61
2023-12-14T21:44:06.037Z,4.98
2023-12-14T21:46:45.097Z,6.87
2023-12-14T21:49:19.263Z,6.50
2023-12-14T21:51:49.552Z,6.50
2023-12-14T21:54:19.668Z,6.86
2023-12-14T21:56:49.612Z,6.72
2023-12-14T21:59:19.448Z,6.72
2023-12-14T22:01:51.912Z,6.73
2023-12-14T22:04:21.748Z,6.68
2023-12-14T22:06:52.853Z,6.59
2023-12-14T22:09:22.814Z,6.25
2023-12-14T22:11:52.944Z,6.16
2023-12-14T22:14:22.908Z,5.83
2023-12-14T22:16:55.762Z,5.39
2023-12-14T22:19:27.854Z,6.18
2023-12-14T22:21:57.719Z,5.89
2023-12-14T22:24:27.608Z,6.40
2023-12-14T22:26:57.407Z,6.18
2023-12-14T22:29:27.282Z,6.09
2023-12-14T22:31:59.906Z,5.78
2023-12-14T22:34:29.741Z,6.22
2023-12-14T22:36:59.558Z,6.20
2023-12-14T22:39:29.384Z,5.62
2023-12-14T22:41:59.192Z,5.78
2023-12-14T22:44:29.108Z,5.94
2023-12-14T22:47:01.664Z,5.73
2023-12-14T22:49:31.669Z,5.97
2023-12-14T22:52:01.506Z,6.14
2023-12-14T22:54:31.300Z,6.18
2023-12-14T22:57:01.140Z,6.08
2023-12-14T22:59:30.994Z,6.12
2023-12-14T23:02:03.784Z,6.20
2023-12-14T23:04:35.324Z,6.26
2023-12-14T23:07:05.389Z,6.26
2023-12-14T23:09:35.260Z,6.41
2023-12-14T23:12:05.182Z,6.07
2023-12-14T23:14:35.037Z,6.39
2023-12-14T23:17:07.461Z,6.15
2023-12-14T23:19:37.292Z,6.07
2023-12-14T23:22:07.232Z,6.17
2023-12-14T23:24:37.017Z,5.93
2023-12-14T23:27:07.395Z,6.15
2023-12-14T23:29:37.215Z,6.00
2023-12-14T23:32:10.132Z,6.11
2023-12-14T23:34:37.541Z,5.76
2023-12-14T23:37:07.745Z,5.89
2023-12-14T23:39:37.620Z,5.42
2023-12-14T23:42:08.027Z,5.78
2023-12-14T23:44:37.891Z,6.22
2023-12-14T23:47:10.584Z,6.27
2023-12-14T23:49:40.374Z,6.08
2023-12-14T23:52:10.146Z,6.27
2023-12-14T23:54:39.968Z,6.31
2023-12-14T23:57:09.764Z,6.29
2023-12-14T23:59:39.584Z,5.86
